Aviation Digital Data Service (ADDS)

Output produced by METARs form (1229 UTC 19 January 2019)
found at http://www.aviationweather.gov/metar/data/
 
Forecast for: RPLC (ANGELES/PAMPANGA, PH)
Text: TAF RPLC 191100Z 1912/2018 27008KT 9999 SCT020 BKN300 TX30/2006Z TN23/1922Z
Forecast period: 1200 UTC 19 January 2019 to 1800 UTC 20 January 2019
Forecast type: FROM: standard forecast or significant change
Winds: from the W (270 degrees) at 9 MPH (8 knots; 4.1 m/s)
Visibility: 6 or more miles 10+ km)
Ceiling: 30000 feet AGL
Clouds: scattered clouds at 2000 feet AGL
broken clouds at 30000 feet AGL
Weather: no significant weather forecast for this period
Text: TEMPO 1912/1918 32007KT SCT020 BKN100
Forecast period: 1200 to 1800 UTC 19 January 2019
Forecast type: TEMPORARY: The following changes expected for less than half the time period
Winds: from the NW (320 degrees) at 8 MPH (7 knots; 3.6 m/s)
Visibility: missing
Ceiling: 10000 feet AGL
Clouds: scattered clouds at 2000 feet AGL
broken clouds at 10000 feet AGL
Weather: no significant weather forecast for this period